Time;durP1;ratioP1;P1;durP2;ratioP2;P2;SDS_P1;SDS_P2;PMS_P1;PMS_P2;Temp;Humidity;BMP_temperature;BMP_pressure;BME280_temperature;BME280_humidity;BME280_pressure;Samples;Min_cycle;Max_cycle;Signal;HPM_P1;HPM_P2
2023/11/27 00:03:23;;;;;;;12.40;6.60;;;;;;;-2.51;80.46;98221.29;226171;1276;23004;-74
2023/11/27 00:08:25;;;;;;;11.50;6.30;;;;;;;-2.67;80.72;98215.08;226201;1276;22547;-75
2023/11/27 00:13:27;;;;;;;11.50;7.10;;;;;;;-2.79;80.35;98207.64;226204;1276;24256;-75
2023/11/27 00:18:31;;;;;;;11.20;7.60;;;;;;;-2.92;80.49;98197.59;226081;1276;22586;-75
2023/11/27 00:23:33;;;;;;;15.50;9.10;;;;;;;-3.02;80.99;98211.27;226173;1275;22650;-75
2023/11/27 00:28:35;;;;;;;17.60;9.70;;;;;;;-3.05;81.32;98210.68;226020;1276;22554;-74
2023/11/27 00:33:37;;;;;;;16.50;9.30;;;;;;;-3.05;81.40;98210.70;226104;1276;22600;-75
2023/11/27 00:38:40;;;;;;;24.60;11.30;;;;;;;-3.00;81.61;98204.27;226232;1273;22542;-75
2023/11/27 00:43:42;;;;;;;17.10;10.00;;;;;;;-2.92;81.53;98190.33;226366;1276;22582;-75
2023/11/27 00:48:44;;;;;;;20.30;10.40;;;;;;;-2.84;81.95;98196.94;226172;1276;22717;-75
2023/11/27 00:53:47;;;;;;;17.40;10.50;;;;;;;-2.77;81.90;98189.55;226139;1276;22665;-75
2023/11/27 00:58:49;;;;;;;22.60;12.60;;;;;;;-2.73;81.39;98171.77;226150;1274;22608;-74
2023/11/27 01:03:51;;;;;;;22.10;13.60;;;;;;;-2.66;82.09;98177.95;226152;1273;23062;-74
2023/11/27 01:08:54;;;;;;;21.80;13.70;;;;;;;-2.61;81.59;98177.05;226099;1276;22909;-74
2023/11/27 01:13:56;;;;;;;24.50;14.80;;;;;;;-2.60;81.93;98174.02;226090;1274;23015;-75
2023/11/27 01:18:58;;;;;;;35.70;18.80;;;;;;;-2.57;81.56;98167.44;226052;1276;22558;-74
2023/11/27 01:24:00;;;;;;;41.90;19.90;;;;;;;-2.50;81.84;98165.16;226225;1276;22550;-75
2023/11/27 01:29:02;;;;;;;37.60;20.60;;;;;;;-2.45;81.57;98161.67;226151;1276;22661;-75
2023/11/27 01:34:05;;;;;;;33.30;19.60;;;;;;;-2.41;81.31;98163.95;226024;1276;26271;-75
2023/11/27 01:39:09;;;;;;;41.60;21.70;;;;;;;-2.39;81.80;98156.88;226137;1253;22552;-75
2023/11/27 01:44:11;;;;;;;37.10;20.90;;;;;;;-2.37;81.68;98158.42;226076;1276;22578;-74
2023/11/27 01:49:16;;;;;;;39.80;22.10;;;;;;;-2.38;81.30;98150.95;226142;1276;26503;-75
2023/11/27 01:54:19;;;;;;;44.70;22.50;;;;;;;-2.35;81.72;98140.33;226148;1275;22563;-75
2023/11/27 01:59:22;;;;;;;42.20;21.90;;;;;;;-2.35;81.68;98127.10;226151;1276;22666;-74
2023/11/27 02:04:24;;;;;;;40.50;21.20;;;;;;;-2.34;82.12;98113.74;226632;1276;22656;-75
2023/11/27 02:09:28;;;;;;;41.00;22.90;;;;;;;-2.35;82.02;98097.75;226160;1274;24241;-75
2023/11/27 02:14:30;;;;;;;40.80;23.60;;;;;;;-2.32;82.03;98073.92;225993;1276;22547;-75
2023/11/27 02:19:33;;;;;;;34.10;20.40;;;;;;;-2.26;82.18;98075.79;226159;1273;22550;-73
2023/11/27 02:24:35;;;;;;;37.80;22.30;;;;;;;-2.21;82.23;98088.00;226212;1272;22562;-74
2023/11/27 02:29:37;;;;;;;36.60;22.40;;;;;;;-2.23;82.03;98082.98;226158;1276;22580;-74
2023/11/27 02:34:39;;;;;;;37.40;22.30;;;;;;;-2.24;81.82;98082.52;226175;1276;22547;-74
2023/11/27 02:39:41;;;;;;;32.80;20.20;;;;;;;-2.22;82.05;98080.14;226062;1276;22567;-75
2023/11/27 02:44:44;;;;;;;30.90;18.80;;;;;;;-2.21;82.10;98081.37;226099;1273;22602;-75
2023/11/27 02:49:47;;;;;;;32.40;19.50;;;;;;;-2.18;82.28;98077.36;226121;1270;22616;-74
2023/11/27 02:54:50;;;;;;;35.50;20.60;;;;;;;-2.12;82.36;98071.18;226122;1272;22607;-74
2023/11/27 02:59:53;;;;;;;34.30;21.60;;;;;;;-2.05;82.32;98063.69;226136;1273;22521;-74
2023/11/27 03:04:55;;;;;;;35.00;22.80;;;;;;;-1.99;82.48;98059.43;226111;1273;22547;-74
2023/11/27 03:09:57;;;;;;;33.50;20.90;;;;;;;-1.91;82.54;98066.14;226168;1276;22550;-73
2023/11/27 03:15:00;;;;;;;30.80;19.30;;;;;;;-1.89;82.20;98073.43;226066;1276;22547;-75
2023/11/27 03:20:04;;;;;;;33.20;21.80;;;;;;;-1.90;82.06;98070.38;225995;1276;22546;-75
2023/11/27 03:25:07;;;;;;;35.30;19.80;;;;;;;-1.91;82.16;98073.23;226066;1276;22551;-75
2023/11/27 03:30:10;;;;;;;34.60;21.10;;;;;;;-1.95;82.05;98072.54;226189;1273;22553;-74
2023/11/27 03:35:12;;;;;;;32.90;21.50;;;;;;;-1.92;82.42;98071.26;226616;1273;22550;-74
2023/11/27 03:40:15;;;;;;;35.80;23.30;;;;;;;-1.92;82.33;98081.26;226073;1275;22579;-74
2023/11/27 03:45:17;;;;;;;33.20;22.10;;;;;;;-1.87;82.74;98073.96;226228;1273;24262;-74
2023/11/27 03:50:19;;;;;;;38.70;24.00;;;;;;;-1.84;82.56;98080.91;226100;1274;22707;-74
2023/11/27 03:55:24;;;;;;;35.00;23.20;;;;;;;-1.78;82.71;98070.44;226082;1273;22676;-75
2023/11/27 04:00:26;;;;;;;36.50;22.30;;;;;;;-1.72;83.07;98073.41;226164;1276;22576;-74
2023/11/27 04:05:29;;;;;;;36.80;23.40;;;;;;;-1.72;83.16;98074.73;226071;1273;22555;-74
2023/11/27 04:10:31;;;;;;;35.00;21.80;;;;;;;-1.70;82.93;98074.42;226004;1273;25505;-75
2023/11/27 04:15:34;;;;;;;30.80;20.10;;;;;;;-1.70;82.91;98064.79;226075;1276;22570;-75
2023/11/27 04:20:38;;;;;;;28.70;18.20;;;;;;;-1.70;83.08;98057.03;225913;1276;22568;-74
2023/11/27 04:25:40;;;;;;;30.70;18.80;;;;;;;-1.71;83.16;98048.25;226182;1273;22572;-74
2023/11/27 04:30:43;;;;;;;26.10;17.30;;;;;;;-1.72;83.19;98041.94;226117;1273;23054;-75
2023/11/27 04:35:45;;;;;;;26.10;16.10;;;;;;;-1.73;83.18;98043.41;226193;1273;22541;-75
2023/11/27 04:40:48;;;;;;;23.10;14.80;;;;;;;-1.75;83.05;98054.77;226146;1269;22976;-75
2023/11/27 04:45:50;;;;;;;24.80;16.20;;;;;;;-1.78;83.11;98054.17;226256;1273;23028;-74
2023/11/27 04:50:52;;;;;;;28.60;16.60;;;;;;;-1.79;83.07;98056.88;226085;1276;22571;-75
2023/11/27 04:55:54;;;;;;;23.90;15.80;;;;;;;-1.78;83.27;98060.36;226048;1274;22691;-75
2023/11/27 05:00:58;;;;;;;24.70;16.70;;;;;;;-1.75;83.35;98064.86;226072;1271;22556;-74
2023/11/27 05:06:01;;;;;;;23.90;16.40;;;;;;;-1.77;83.36;98066.35;226080;1273;22573;-75
2023/11/27 05:11:04;;;;;;;23.30;16.40;;;;;;;-1.75;83.48;98068.79;226196;1270;22615;-75
2023/11/27 05:16:07;;;;;;;25.30;16.60;;;;;;;-1.74;83.67;98072.83;225998;1276;22557;-75
2023/11/27 05:21:14;;;;;;;26.80;17.70;;;;;;;-1.72;83.64;98075.33;226038;1276;22578;-75
2023/11/27 05:26:16;;;;;;;24.50;17.40;;;;;;;-1.72;83.81;98078.43;226122;1273;22563;-76
2023/11/27 05:31:22;;;;;;;23.80;17.20;;;;;;;-1.72;84.11;98079.93;225908;1274;22600;-74
2023/11/27 05:36:25;;;;;;;23.00;16.00;;;;;;;-1.72;83.74;98089.25;226118;1274;22647;-76
2023/11/27 05:41:27;;;;;;;22.10;15.90;;;;;;;-1.73;83.80;98094.38;226149;1276;22543;-75
2023/11/27 05:46:30;;;;;;;21.00;14.10;;;;;;;-1.73;83.91;98094.67;226118;1273;22689;-75
2023/11/27 05:51:33;;;;;;;20.00;14.20;;;;;;;-1.72;83.86;98091.55;226020;1275;22650;-75
2023/11/27 05:56:35;;;;;;;16.50;12.80;;;;;;;-1.73;83.79;98087.80;226156;1272;22543;-75
2023/11/27 06:01:38;;;;;;;18.40;13.00;;;;;;;-1.74;83.97;98087.58;226140;1273;22610;-76
2023/11/27 06:06:40;;;;;;;18.70;13.10;;;;;;;-1.78;84.21;98088.67;226264;1275;22540;-74
2023/11/27 06:11:42;;;;;;;19.00;12.70;;;;;;;-1.84;83.94;98089.02;226187;1273;23082;-75
2023/11/27 06:16:45;;;;;;;17.40;12.60;;;;;;;-1.95;83.83;98088.61;226122;1273;22668;-75
2023/11/27 06:21:47;;;;;;;19.40;14.10;;;;;;;-2.10;83.91;98089.30;226122;1269;25683;-74
2023/11/27 06:26:49;;;;;;;22.30;15.10;;;;;;;-2.23;84.17;98094.00;226052;1272;22546;-75
2023/11/27 06:31:51;;;;;;;21.90;15.00;;;;;;;-2.34;84.19;98102.70;226033;1270;22577;-75
2023/11/27 06:36:53;;;;;;;24.70;17.20;;;;;;;-2.45;84.13;98103.37;226059;1264;22614;-75
2023/11/27 06:41:56;;;;;;;29.40;19.10;;;;;;;-2.53;84.40;98103.12;225982;1269;22575;-75
2023/11/27 06:46:58;;;;;;;36.10;22.80;;;;;;;-2.59;84.46;98099.04;226138;1267;24205;-75
2023/11/27 06:52:01;;;;;;;37.50;23.70;;;;;;;-2.64;84.71;98099.58;226918;1267;25662;-76
2023/11/27 06:57:03;;;;;;;34.10;22.60;;;;;;;-2.68;84.62;98093.17;226129;1269;22584;-75
2023/11/27 07:02:05;;;;;;;34.30;21.60;;;;;;;-2.71;84.69;98101.33;226000;1274;22584;-75
2023/11/27 07:07:09;;;;;;;28.80;20.50;;;;;;;-2.71;84.94;98106.71;225949;1269;22576;-82
2023/11/27 07:12:14;;;;;;;30.00;20.00;;;;;;;-2.70;84.93;98106.59;225826;1269;24994;-76
2023/11/27 07:17:18;;;;;;;31.50;20.60;;;;;;;-2.66;85.33;98100.95;225703;1257;22548;-76
2023/11/27 07:22:20;;;;;;;29.00;18.80;;;;;;;-2.55;85.15;98099.70;225831;1269;22645;-74
2023/11/27 07:27:22;;;;;;;26.80;17.20;;;;;;;-2.41;85.02;98099.81;225667;1262;22536;-76
2023/11/27 07:32:26;;;;;;;24.60;16.00;;;;;;;-2.34;85.17;98101.41;225615;1255;22700;-76
2023/11/27 07:37:28;;;;;;;27.30;17.30;;;;;;;-2.26;85.31;98100.84;225854;1256;22544;-75
2023/11/27 07:42:31;;;;;;;24.60;16.10;;;;;;;-2.15;85.06;98105.63;225876;1269;22603;-76
2023/11/27 07:47:33;;;;;;;23.80;15.60;;;;;;;-2.08;84.65;98104.19;225722;1253;22610;-75
2023/11/27 07:52:35;;;;;;;25.90;16.00;;;;;;;-2.08;84.47;98104.87;225901;1253;22557;-78
2023/11/27 07:57:38;;;;;;;32.20;17.10;;;;;;;-2.00;84.46;98099.52;225884;1262;22610;-76
2023/11/27 08:02:42;;;;;;;44.70;23.30;;;;;;;-1.84;84.63;98100.09;225859;1262;22527;-76
2023/11/27 08:07:45;;;;;;;44.50;22.90;;;;;;;-1.77;84.37;98093.99;225811;1256;22549;-76
2023/11/27 08:12:47;;;;;;;41.60;22.00;;;;;;;-1.66;84.70;98096.32;225861;1269;22651;-76
2023/11/27 08:17:50;;;;;;;51.30;28.70;;;;;;;-1.53;84.45;98094.73;225458;1256;22735;-75
2023/11/27 08:22:52;;;;;;;45.60;27.00;;;;;;;-1.44;84.40;98097.77;225661;1270;22556;-73
2023/11/27 08:27:56;;;;;;;45.90;25.30;;;;;;;-1.44;84.40;98095.48;225683;1253;22584;-73
2023/11/27 08:32:58;;;;;;;46.00;24.90;;;;;;;-1.42;84.16;98092.09;227342;1257;22544;-72
2023/11/27 08:38:02;;;;;;;36.60;22.90;;;;;;;-1.36;84.53;98085.48;225656;1256;22565;-72
2023/11/27 08:43:04;;;;;;;35.30;20.50;;;;;;;-1.24;84.30;98088.98;225755;1268;22547;-73
2023/11/27 08:48:06;;;;;;;37.50;21.90;;;;;;;-1.17;84.27;98099.39;225694;1256;22934;-72
2023/11/27 08:53:09;;;;;;;35.50;21.60;;;;;;;-1.11;84.08;98104.74;225886;1251;22537;-74
2023/11/27 08:58:12;;;;;;;34.00;21.20;;;;;;;-0.99;84.08;98108.93;225823;1257;22540;-74
2023/11/27 09:03:18;;;;;;;75.00;48.40;;;;;;;-0.86;83.85;98095.52;225834;1251;22650;-73
2023/11/27 09:08:21;;;;;;;22.30;13.80;;;;;;;-0.74;83.77;98085.13;225779;1256;22578;-73
2023/11/27 09:13:23;;;;;;;18.10;12.40;;;;;;;-0.58;83.67;98076.33;226052;1261;22603;-70
2023/11/27 09:18:26;;;;;;;19.90;12.30;;;;;;;-0.47;83.16;98071.34;225992;1264;22531;-70
2023/11/27 09:23:28;;;;;;;19.30;12.00;;;;;;;-0.41;82.98;98067.09;225883;1256;22718;-73
2023/11/27 09:28:30;;;;;;;17.50;10.60;;;;;;;-0.31;82.83;98063.88;225922;1257;22551;-70
2023/11/27 09:33:34;;;;;;;17.60;11.10;;;;;;;-0.20;82.43;98062.48;226179;1256;22551;-72
2023/11/27 09:38:37;;;;;;;15.20;9.80;;;;;;;-0.16;82.22;98049.67;225973;1266;24415;-71
2023/11/27 09:43:39;;;;;;;17.20;9.00;;;;;;;-0.09;82.08;98038.80;225843;1254;22536;-72
2023/11/27 09:48:44;;;;;;;12.80;8.90;;;;;;;0.02;81.81;98033.81;225835;1253;26741;-73
2023/11/27 09:53:51;;;;;;;12.10;7.70;;;;;;;0.14;81.52;98028.39;225534;1272;22623;-73
2023/11/27 09:58:59;;;;;;;11.60;7.70;;;;;;;0.28;81.51;98027.06;225374;1272;24384;-74
2023/11/27 10:04:07;;;;;;;11.20;7.30;;;;;;;0.38;80.84;98019.23;227891;1276;22584;-74
2023/11/27 10:09:14;;;;;;;11.10;6.60;;;;;;;0.44;80.48;98021.51;225825;1256;22544;-76
2023/11/27 10:14:18;;;;;;;12.00;5.90;;;;;;;0.51;79.91;98009.88;225938;1268;22569;-75
2023/11/27 10:19:25;;;;;;;8.10;4.90;;;;;;;0.58;79.54;98005.09;225915;1273;24407;-75
2023/11/27 10:24:28;;;;;;;12.80;5.90;;;;;;;0.69;79.59;97994.94;225997;1257;22547;-76
2023/11/27 10:29:31;;;;;;;9.20;5.50;;;;;;;0.86;79.44;97988.22;225861;1252;22556;-75
2023/11/27 10:34:33;;;;;;;8.90;5.40;;;;;;;0.95;79.14;97983.14;225789;1253;22547;-75
2023/11/27 10:39:37;;;;;;;7.00;4.10;;;;;;;1.03;78.59;97977.84;225632;1260;22562;-75
2023/11/27 10:44:44;;;;;;;6.70;4.20;;;;;;;1.10;78.05;97980.46;225934;1253;22605;-74
2023/11/27 10:49:49;;;;;;;13.30;4.50;;;;;;;1.13;77.57;97974.59;225893;1269;22575;-74
2023/11/27 10:54:54;;;;;;;4.40;3.40;;;;;;;1.14;76.80;97962.76;225972;1269;22556;-74
2023/11/27 10:59:57;;;;;;;9.00;4.70;;;;;;;1.12;76.65;97964.30;225952;1264;22826;-76
2023/11/27 11:05:03;;;;;;;7.50;4.70;;;;;;;1.26;77.31;97955.87;225862;1266;22710;-73
2023/11/27 11:10:09;;;;;;;6.60;4.10;;;;;;;1.33;76.48;97952.38;226028;1256;22972;-73
2023/11/27 11:15:17;;;;;;;8.00;4.50;;;;;;;1.33;76.15;97944.42;226051;1266;24852;-74
2023/11/27 11:20:34;;;;;;;122.90;13.90;;;;;;;1.27;75.84;97940.13;225966;1263;22547;-75
2023/11/27 11:25:56;;;;;;;8.70;4.80;;;;;;;1.32;75.97;97938.23;225794;1269;22557;-75
2023/11/27 11:31:33;;;;;;;8.50;5.00;;;;;;;1.53;76.33;97932.39;226062;1257;22821;-74
2023/11/27 11:36:36;;;;;;;6.30;4.40;;;;;;;1.52;75.12;97928.08;225886;1260;22588;-74
2023/11/27 11:41:38;;;;;;;32.10;8.10;;;;;;;1.50;74.85;97922.19;225517;1267;22642;-75
2023/11/27 11:46:42;;;;;;;8.80;5.80;;;;;;;1.54;74.61;97918.05;225669;1253;23011;-74
2023/11/27 11:52:06;;;;;;;9.10;5.70;;;;;;;1.48;74.25;97918.81;225491;1260;22978;-74
2023/11/27 11:57:12;;;;;;;10.80;6.80;;;;;;;1.36;74.30;97909.50;225747;1270;25287;-74
2023/11/27 12:02:19;;;;;;;9.80;6.30;;;;;;;1.46;74.99;97908.05;227030;1271;22573;-74
2023/11/27 12:07:24;;;;;;;10.70;7.00;;;;;;;1.63;75.02;97905.29;225971;1254;22584;-74
2023/11/27 12:12:27;;;;;;;13.10;6.90;;;;;;;1.63;74.46;97900.61;226024;1259;23140;-74
2023/11/27 12:17:30;;;;;;;10.40;6.70;;;;;;;1.47;74.38;97889.58;226089;1256;22664;-75
2023/11/27 12:22:35;;;;;;;9.30;6.30;;;;;;;1.44;74.66;97876.38;225651;1269;22547;-75
2023/11/27 12:27:37;;;;;;;15.30;7.20;;;;;;;1.47;74.92;97870.29;225962;1256;22559;-75
2023/11/27 12:32:39;;;;;;;12.50;7.50;;;;;;;1.56;75.00;97869.04;225879;1255;23128;-74
2023/11/27 12:37:49;;;;;;;15.10;7.50;;;;;;;1.71;75.16;97865.31;225852;1272;24257;-74
2023/11/27 12:42:54;;;;;;;11.90;7.30;;;;;;;1.77;74.81;97850.98;225935;1271;22551;-76
2023/11/27 12:47:57;;;;;;;13.60;8.60;;;;;;;1.75;74.40;97838.53;225735;1263;25315;-75
2023/11/27 12:53:03;;;;;;;15.30;8.90;;;;;;;1.69;74.25;97839.11;225905;1255;22570;-74
2023/11/27 12:58:10;;;;;;;18.70;10.80;;;;;;;1.64;74.40;97846.40;225952;1269;22554;-75
2023/11/27 13:03:22;;;;;;;18.10;11.20;;;;;;;1.59;74.55;97847.27;225027;1260;22946;-76
2023/11/27 13:08:24;;;;;;;20.00;11.60;;;;;;;1.56;74.65;97843.04;225700;1251;22543;-75
2023/11/27 13:13:29;;;;;;;33.00;14.00;;;;;;;1.55;74.62;97836.85;225894;1260;22536;-75
2023/11/27 13:18:32;;;;;;;18.60;12.00;;;;;;;1.52;74.50;97840.47;225882;1266;23254;-75
2023/11/27 13:23:37;;;;;;;18.10;11.20;;;;;;;1.49;74.48;97838.34;225820;1253;22597;-75
2023/11/27 13:28:42;;;;;;;21.60;12.40;;;;;;;1.51;74.73;97829.95;225683;1260;22547;-74
2023/11/27 13:33:45;;;;;;;18.50;11.50;;;;;;;1.63;74.97;97826.67;225789;1259;24421;-73
2023/11/27 13:38:50;;;;;;;23.00;12.80;;;;;;;1.73;74.93;97827.77;225990;1266;25262;-73
2023/11/27 13:43:53;;;;;;;23.20;12.20;;;;;;;1.85;75.21;97819.91;225827;1265;22545;-77
2023/11/27 13:48:56;;;;;;;23.10;14.10;;;;;;;1.91;75.15;97815.81;225761;1262;26017;-75
2023/11/27 13:53:59;;;;;;;24.20;14.40;;;;;;;1.90;74.94;97810.00;225740;1253;22598;-75
2023/11/27 13:59:02;;;;;;;23.10;14.30;;;;;;;1.70;74.36;97801.33;225638;1272;22557;-74
2023/11/27 14:15:05;;;;;;;24.10;14.60;;;;;;;1.33;75.34;97783.22;225603;1256;22554;-74
2023/11/27 14:25:49;;;;;;;28.40;16.80;;;;;;;1.35;75.54;97772.27;225964;1270;22552;-73
2023/11/27 14:30:51;;;;;;;27.20;17.20;;;;;;;1.29;75.43;97761.13;225981;1255;22554;-77
2023/11/27 14:35:55;;;;;;;37.70;21.00;;;;;;;1.20;75.61;97753.36;225799;1257;24263;-74
2023/11/27 14:40:57;;;;;;;38.70;22.30;;;;;;;1.11;75.58;97740.24;225857;1253;22650;-75
2023/11/27 14:45:59;;;;;;;47.30;25.80;;;;;;;0.98;75.59;97742.02;225733;1256;22557;-76
2023/11/27 14:51:01;;;;;;;41.40;23.80;;;;;;;0.86;75.71;97736.36;225797;1262;23062;-76
2023/11/27 14:56:09;;;;;;;42.60;23.00;;;;;;;0.80;76.20;97737.41;226038;1256;24266;-75
2023/11/27 15:01:14;;;;;;;34.30;20.80;;;;;;;0.78;76.65;97727.75;225581;1253;23109;-73
2023/11/27 15:06:17;;;;;;;33.60;19.80;;;;;;;0.78;76.63;97724.86;225533;1272;24234;-73
2023/11/27 15:11:19;;;;;;;35.80;20.50;;;;;;;0.75;76.57;97721.17;225666;1266;22550;-73
2023/11/27 15:16:27;;;;;;;31.70;18.40;;;;;;;0.75;76.71;97722.48;225617;1253;22566;-73
2023/11/27 15:21:29;;;;;;;46.60;27.00;;;;;;;0.76;76.85;97714.05;228679;1275;22298;-75
2023/11/27 15:26:31;;;;;;;44.70;25.00;;;;;;;0.78;76.77;97703.83;226351;1272;22562;-76
2023/11/27 15:31:37;;;;;;;47.20;25.40;;;;;;;0.81;76.87;97694.59;226057;1275;22583;-76
2023/11/27 15:36:40;;;;;;;44.90;24.30;;;;;;;0.78;76.63;97688.63;226211;1275;22594;-76
2023/11/27 15:41:45;;;;;;;41.20;23.10;;;;;;;0.71;76.65;97678.95;226278;1253;22554;-75
2023/11/27 15:46:47;;;;;;;38.50;22.50;;;;;;;0.62;76.76;97677.90;226199;1265;22562;-76
2023/11/27 15:51:50;;;;;;;41.00;23.40;;;;;;;0.56;76.88;97665.98;226305;1259;22551;-76
2023/11/27 15:56:52;;;;;;;38.40;22.30;;;;;;;0.55;77.28;97658.38;226358;1274;22551;-75
2023/11/27 16:01:54;;;;;;;43.20;23.70;;;;;;;0.53;77.30;97651.66;226309;1275;22528;-76
2023/11/27 16:06:57;;;;;;;46.10;27.40;;;;;;;0.50;77.26;97641.12;226404;1275;22664;-76
2023/11/27 16:11:59;;;;;;;49.20;26.80;;;;;;;0.49;77.37;97632.38;226213;1275;22747;-75
2023/11/27 16:17:02;;;;;;;47.60;26.90;;;;;;;0.49;77.62;97631.54;226320;1275;22544;-75
2023/11/27 16:22:04;;;;;;;43.20;23.70;;;;;;;0.49;77.46;97625.14;226376;1272;22594;-75
2023/11/27 16:27:07;;;;;;;45.10;26.00;;;;;;;0.44;77.45;97619.04;226264;1275;22544;-75
2023/11/27 16:32:09;;;;;;;53.30;28.70;;;;;;;0.42;77.58;97612.90;226243;1275;22680;-75
2023/11/27 16:37:13;;;;;;;53.30;30.60;;;;;;;0.42;78.03;97605.30;226139;1275;22910;-75
2023/11/27 16:42:16;;;;;;;56.80;31.50;;;;;;;0.44;78.10;97597.48;226163;1275;22637;-75
2023/11/27 16:47:18;;;;;;;63.10;32.70;;;;;;;0.45;78.19;97598.54;226644;1273;22674;-75
2023/11/27 16:52:34;;;;;;;64.20;34.10;;;;;;;0.45;78.33;97592.79;226314;1275;22539;-76
2023/11/27 16:57:37;;;;;;;62.40;35.10;;;;;;;0.45;78.38;97590.95;226259;1275;22539;-75
2023/11/27 17:02:39;;;;;;;67.10;35.60;;;;;;;0.44;78.51;97592.25;226314;1272;22651;-76
2023/11/27 17:07:41;;;;;;;57.70;33.40;;;;;;;0.44;78.67;97585.69;226401;1275;22728;-75
2023/11/27 17:12:45;;;;;;;62.30;33.70;;;;;;;0.45;78.71;97581.62;226198;1275;22554;-75
2023/11/27 17:17:50;;;;;;;65.80;37.00;;;;;;;0.44;78.82;97571.84;226069;1275;25467;-76
2023/11/27 17:22:53;;;;;;;56.10;30.60;;;;;;;0.44;78.83;97571.99;226152;1275;22598;-76
2023/11/27 17:28:12;;;;;;;59.90;33.60;;;;;;;0.41;78.92;97571.81;226272;1275;22553;-75
2023/11/27 17:33:16;;;;;;;57.80;31.60;;;;;;;0.33;78.90;97562.85;226202;1275;22555;-75
2023/11/27 17:38:18;;;;;;;67.00;34.90;;;;;;;0.26;79.04;97550.91;226554;1273;22665;-76
2023/11/27 17:43:20;;;;;;;59.60;34.20;;;;;;;0.21;79.11;97536.33;226257;1275;25412;-75
2023/11/27 17:48:23;;;;;;;59.70;33.60;;;;;;;0.17;79.51;97532.25;226322;1275;22539;-75
2023/11/27 17:53:25;;;;;;;70.40;38.20;;;;;;;0.16;79.58;97536.71;226355;1275;22555;-76
2023/11/27 17:58:29;;;;;;;74.70;38.70;;;;;;;0.15;79.85;97530.70;226391;1272;25802;-75
2023/11/27 18:03:32;;;;;;;70.40;35.70;;;;;;;0.13;80.01;97531.62;226325;1275;22558;-76
2023/11/27 18:08:36;;;;;;;73.70;39.20;;;;;;;0.12;79.89;97528.27;226210;1275;22536;-76
2023/11/27 18:13:40;;;;;;;72.90;38.30;;;;;;;0.15;80.16;97524.35;226250;1275;22560;-75
2023/11/27 18:18:43;;;;;;;66.90;35.10;;;;;;;0.16;80.47;97517.52;226164;1275;25297;-75
2023/11/27 18:23:45;;;;;;;75.20;38.30;;;;;;;0.13;80.36;97516.88;226123;1275;24244;-76
2023/11/27 18:28:49;;;;;;;66.60;36.30;;;;;;;0.16;80.65;97509.88;226333;1272;22543;-75
2023/11/27 18:33:51;;;;;;;68.60;37.80;;;;;;;0.14;80.44;97501.44;226364;1272;22898;-77
2023/11/27 18:38:54;;;;;;;71.70;38.00;;;;;;;0.12;80.62;97495.40;226351;1275;24255;-76
2023/11/27 18:43:58;;;;;;;73.50;38.50;;;;;;;0.16;80.96;97483.36;226391;1275;26256;-76
2023/11/27 18:49:02;;;;;;;72.50;39.20;;;;;;;0.22;81.16;97472.71;226343;1272;22572;-75
2023/11/27 18:54:04;;;;;;;70.10;38.50;;;;;;;0.24;80.96;97469.90;226143;1275;22745;-76
2023/11/27 18:59:07;;;;;;;71.90;40.00;;;;;;;0.25;81.25;97455.46;226362;1275;22559;-75
2023/11/27 19:04:09;;;;;;;68.70;38.90;;;;;;;0.26;81.15;97440.11;226173;1275;23004;-75
2023/11/27 19:09:15;;;;;;;70.80;37.60;;;;;;;0.32;81.31;97429.27;226256;1275;22564;-76
2023/11/27 19:14:18;;;;;;;70.20;37.20;;;;;;;0.36;81.37;97428.87;226138;1276;22565;-75
2023/11/27 19:19:20;;;;;;;61.10;32.30;;;;;;;0.40;81.16;97417.23;226276;1276;22579;-76
2023/11/27 19:24:24;;;;;;;61.20;33.50;;;;;;;0.39;81.18;97404.34;226370;1273;22590;-76
2023/11/27 19:29:26;;;;;;;56.70;31.90;;;;;;;0.37;81.00;97393.94;226303;1273;22558;-76
2023/11/27 19:34:31;;;;;;;49.90;29.10;;;;;;;0.36;81.04;97385.59;226363;1273;26324;-76
2023/11/27 19:39:34;;;;;;;54.20;29.30;;;;;;;0.36;80.97;97386.27;226323;1275;22543;-76
2023/11/27 19:44:38;;;;;;;59.40;32.90;;;;;;;0.40;81.20;97383.33;226178;1276;22587;-76
2023/11/27 19:49:40;;;;;;;55.20;32.80;;;;;;;0.42;81.35;97379.06;226113;1276;22539;-76
2023/11/27 19:54:43;;;;;;;47.50;28.30;;;;;;;0.44;81.11;97375.20;226096;1272;22587;-75
2023/11/27 19:59:46;;;;;;;57.50;33.70;;;;;;;0.46;81.10;97365.14;226239;1275;22535;-76
2023/11/27 20:04:50;;;;;;;51.90;30.10;;;;;;;0.49;81.09;97356.84;226293;1275;22542;-75
2023/11/27 20:09:58;;;;;;;47.60;28.20;;;;;;;0.54;80.81;97341.73;226331;1276;22572;-76
2023/11/27 20:15:00;;;;;;;50.80;29.20;;;;;;;0.53;80.46;97332.66;226219;1276;22941;-75
2023/11/27 20:20:03;;;;;;;46.70;26.70;;;;;;;0.51;80.34;97328.44;226304;1276;22917;-76
2023/11/27 20:25:07;;;;;;;48.20;26.40;;;;;;;0.49;80.21;97321.64;226348;1276;26267;-76
2023/11/27 20:30:12;;;;;;;40.40;23.70;;;;;;;0.50;80.15;97317.48;226485;1275;22547;-75
2023/11/27 20:35:14;;;;;;;38.80;22.90;;;;;;;0.46;80.23;97312.60;226293;1276;24684;-76
2023/11/27 20:40:17;;;;;;;41.80;23.50;;;;;;;0.47;79.81;97302.21;226249;1273;25296;-75
2023/11/27 20:45:20;;;;;;;38.20;22.90;;;;;;;0.46;79.81;97297.92;226204;1276;22588;-75
2023/11/27 20:50:24;;;;;;;40.70;23.20;;;;;;;0.43;79.79;97285.77;226283;1274;22543;-76
2023/11/27 20:55:27;;;;;;;42.50;24.30;;;;;;;0.38;79.71;97278.67;226266;1276;24286;-76
2023/11/27 21:00:30;;;;;;;42.00;24.00;;;;;;;0.38;79.87;97274.95;226414;1274;24251;-76
2023/11/27 21:05:33;;;;;;;39.30;22.80;;;;;;;0.38;79.75;97275.73;226273;1273;22673;-75
2023/11/27 21:10:36;;;;;;;42.80;23.30;;;;;;;0.38;79.86;97273.84;226202;1275;23508;-75
2023/11/27 21:15:40;;;;;;;39.80;23.80;;;;;;;0.36;79.91;97272.14;226236;1260;22615;-75
2023/11/27 21:20:42;;;;;;;44.70;25.70;;;;;;;0.34;79.95;97274.96;226204;1275;25362;-75
2023/11/27 21:25:45;;;;;;;42.00;25.20;;;;;;;0.30;80.03;97271.88;226235;1275;23138;-76
2023/11/27 21:30:49;;;;;;;46.30;27.80;;;;;;;0.28;80.02;97253.77;226313;1275;22540;-76
2023/11/27 21:35:51;;;;;;;46.70;25.90;;;;;;;0.29;80.02;97239.73;226219;1275;22533;-76
2023/11/27 21:40:56;;;;;;;41.90;25.70;;;;;;;0.31;80.28;97231.09;226596;1275;25291;-76
2023/11/27 21:45:58;;;;;;;45.30;25.30;;;;;;;0.32;80.21;97224.38;226119;1275;22611;-75
2023/11/27 21:51:00;;;;;;;39.30;23.40;;;;;;;0.30;79.93;97215.90;226367;1275;22545;-75
2023/11/27 21:56:03;;;;;;;42.10;23.80;;;;;;;0.28;80.20;97204.26;226301;1275;23121;-75
2023/11/27 22:01:05;;;;;;;45.90;23.00;;;;;;;0.24;80.39;97201.17;226141;1275;22540;-75
2023/11/27 22:06:21;;;;;;;42.40;25.20;;;;;;;0.21;80.44;97190.95;226328;1275;22544;-75
2023/11/27 22:11:24;;;;;;;40.00;23.70;;;;;;;0.19;80.43;97177.57;226204;1270;22546;-76
2023/11/27 22:16:26;;;;;;;40.50;23.50;;;;;;;0.15;80.51;97177.45;226232;1275;22540;-75
2023/11/27 22:21:31;;;;;;;39.50;23.40;;;;;;;0.13;80.77;97169.93;226376;1275;22832;-75
2023/11/27 22:26:40;;;;;;;39.60;25.70;;;;;;;0.13;80.82;97166.75;226340;1272;22560;-76
2023/11/27 22:31:42;;;;;;;43.10;23.80;;;;;;;0.14;81.04;97158.98;226147;1275;23373;-76
2023/11/27 22:36:45;;;;;;;40.80;24.40;;;;;;;0.12;81.08;97153.47;226298;1273;24476;-76
2023/11/27 22:41:47;;;;;;;41.80;24.60;;;;;;;0.09;81.25;97143.83;226275;1275;23099;-75
2023/11/27 22:46:49;;;;;;;40.90;22.70;;;;;;;0.07;81.32;97141.42;226419;1269;24245;-75
2023/11/27 22:51:52;;;;;;;40.30;22.60;;;;;;;0.03;81.35;97136.10;226250;1275;22557;-75
2023/11/27 22:56:54;;;;;;;40.00;22.70;;;;;;;-0.03;81.58;97127.90;226219;1275;22719;-75
2023/11/27 23:01:56;;;;;;;36.10;22.50;;;;;;;-0.07;81.58;97120.27;226321;1275;22528;-74
2023/11/27 23:06:58;;;;;;;38.30;22.10;;;;;;;-0.10;81.83;97114.00;226438;1275;22551;-74
2023/11/27 23:12:01;;;;;;;36.50;21.70;;;;;;;-0.12;81.76;97102.77;226165;1275;22558;-75
2023/11/27 23:17:03;;;;;;;38.80;21.80;;;;;;;-0.14;81.97;97090.86;226331;1273;23002;-75
2023/11/27 23:22:05;;;;;;;38.90;21.90;;;;;;;-0.14;82.17;97080.52;225973;1275;188479;-75
2023/11/27 23:27:09;;;;;;;39.10;21.90;;;;;;;-0.17;82.33;97072.48;226331;1273;22644;-75